Database: COMPET-N - COOP - 3PL - 4PL - CNDOOM

WAD: Doom | Doom 2 | TNT | Plutonia | AV | HR | Scythe | MM | MM2 | Requiem | CE
Category: speed | nmare | max | nm100s | tyson | pacifist | fast | respawn | nomo | misc | built | all
Highscore: ALL | IWAD | PWAD | Country | Continent

Remove: wad | map | category | player | all
MapPlayerTimeDateFilenameCommentsDL
MAP26: ExcoriationEugene Kapustin1:17.002003-08-18rf26-117.zip - 383
MAP01: The TeleporterEugene Kapustin1:18.002008-02-15mm01f118.zip - 821
MAP01: The TeleporterEugene Kapustin1:23.002007-06-28mm01f123.zip - 723
MAP03: InterlockEugene Kapustin1:24.002007-10-27mm03f124.zip - 646
MAP32: Dances with DemonsEugene Kapustin1:33.002015-01-18m232f133.zip - 626
MAP01: OutpostEugene Kapustin1:43.002007-01-03m201f143.zip - 671
MAP32: Dances with DemonsEugene Kapustin1:44.002011-11-05m232f144.zip - 457
MAP01: OutpostEugene Kapustin1:47.002006-04-10m201f147.zip - 681
MAP32: Dances with DemonsEugene Kapustin1:57.002011-11-02m232f157.zip - 440
MAP32: Dances with DemonsEugene Kapustin2:00.002010-01-03m232f200.zip - 442
MAP32: Dances with DemonsEugene Kapustin2:06.002004-04-05m232f206.zip - 416
MAP31: Doorway to QuakeEugene Kapustin2:18.002007-05-15rf31-218.zip - 564
MAP30: ViperEugene Kapustin2:59.002010-01-10mm30f259.zip - 559
MAP30: ViperEugene Kapustin3:00.002008-04-04mm30f300.zip - 463
MAP02: The BridgeEugene Kapustin3:03.002008-02-17mm02f303.zip - 646
MAP30: ViperEugene Kapustin3:04.002006-02-26mm30f304.zip - 438
MAP27: Anti-ChristEugene Kapustin3:05.002006-01-12pf27-305.zip - 617
MAP31: Doorway to QuakeEugene Kapustin3:10.002003-08-21rf31-310.zip - 423
MAP11: Rats in the WallsEugene Kapustin5:49.002003-08-30rf11-549.zip - 381
MAP08: StigmataEugene Kapustin6:46.002007-05-18m208f646.zip - 600
MAP11: Sewer ShutdownEugene Kapustin7:00.002010-06-10m211f700.zip - 588
MAP05: Rites of PassageEugene Kapustin7:39.002010-06-03m205f739.zip - 616
MAP16: The NephilimEugene Kapustin7:45.002007-10-26m216f745.zip - 553
MAP05: Rites of PassageEugene Kapustin8:00.002010-05-28m205f800.zip - 459
MAP07: FrustrationEugene Kapustin9:01.002006-01-12m207f901.zip - 521
MAP07: FrustrationEugene Kapustin9:58.002005-01-02m207f958.zip - 486
MAP26: Base ExposureEugene Kapustin10:53.002008-03-06m2261053.zip - 560
MAP26: Base ExposureEugene Kapustin12:25.002007-06-11m2261225.zip - 478
MAP27: The SilosEugene Kapustin13:00.002007-06-12m2271300.zip - 575
Remove: wad | map | category | player | all